<?xml version="1.0" encoding="UTF-8" standalone="no" ?>
<gpx xmlns="http://www.topografix.com/GPX/1/1" xmlns:xsi="http://www.w3.org/2001/XMLSchema-instance" xsi:schemaLocation="http://www.topografix.com/GPX/1/1 http://www.topografix.com/GPX/1/1/gpx.xsd" version="1.1" creator="VisuGPX - https://www.visugpx.com">
  <metadata>
    <name>chateau de Montgilbert et cascade du moulin d'Aiguillon</name>
    <desc><![CDATA[Circuit non balisé, à faire avec la carte en main.]]></desc>
  </metadata>
  <trk>
    <name><![CDATA[OR-8119130--Ferrières-sur-Sichon:chateau montgilbert et cascades moulin d'Aiguillon]]></name>
    <trkseg>
      <trkpt lat="46.03079" lon="3.64916">
        <ele>603</ele>
        <time>2017-11-17T19:49:57Z</time>
      </trkpt>
      <trkpt lat="46.03138" lon="3.64774">
        <ele>602</ele>
        <time>2017-11-17T19:51:57Z</time>
      </trkpt>
      <trkpt lat="46.03174" lon="3.64581">
        <ele>604</ele>
        <time>2017-11-17T19:53:57Z</time>
      </trkpt>
      <trkpt lat="46.031" lon="3.64427">
        <ele>616</ele>
        <time>2017-11-17T19:55:57Z</time>
      </trkpt>
      <trkpt lat="46.03046" lon="3.64302">
        <ele>619</ele>
        <time>2017-11-17T19:57:57Z</time>
      </trkpt>
      <trkpt lat="46.03094" lon="3.64152">
        <ele>624</ele>
        <time>2017-11-17T19:59:57Z</time>
      </trkpt>
      <trkpt lat="46.03061" lon="3.64023">
        <ele>637</ele>
        <time>2017-11-17T20:01:57Z</time>
      </trkpt>
      <trkpt lat="46.03079" lon="3.63882">
        <ele>646</ele>
        <time>2017-11-17T20:03:57Z</time>
      </trkpt>
      <trkpt lat="46.0301" lon="3.63611">
        <ele>650</ele>
        <time>2017-11-17T20:05:57Z</time>
      </trkpt>
      <trkpt lat="46.02942" lon="3.63418">
        <ele>653</ele>
        <time>2017-11-17T20:07:57Z</time>
      </trkpt>
      <trkpt lat="46.02825" lon="3.63148">
        <ele>647</ele>
        <time>2017-11-17T20:09:57Z</time>
      </trkpt>
      <trkpt lat="46.02718" lon="3.6292">
        <ele>642</ele>
        <time>2017-11-17T20:11:57Z</time>
      </trkpt>
      <trkpt lat="46.02676" lon="3.62671">
        <ele>640</ele>
        <time>2017-11-17T20:13:57Z</time>
      </trkpt>
      <trkpt lat="46.02706" lon="3.62405">
        <ele>627</ele>
        <time>2017-11-17T20:15:57Z</time>
      </trkpt>
      <trkpt lat="46.02766" lon="3.62199">
        <ele>612</ele>
        <time>2017-11-17T20:17:57Z</time>
      </trkpt>
      <trkpt lat="46.02802" lon="3.61981">
        <ele>600</ele>
        <time>2017-11-17T20:19:57Z</time>
      </trkpt>
      <trkpt lat="46.02855" lon="3.61835">
        <ele>597</ele>
        <time>2017-11-17T20:21:57Z</time>
      </trkpt>
      <trkpt lat="46.02927" lon="3.61706">
        <ele>585</ele>
        <time>2017-11-17T20:23:57Z</time>
      </trkpt>
      <trkpt lat="46.03007" lon="3.61732">
        <ele>579</ele>
        <time>2017-11-17T20:25:57Z</time>
      </trkpt>
      <trkpt lat="46.03082" lon="3.61753">
        <ele>573</ele>
        <time>2017-11-17T20:27:57Z</time>
      </trkpt>
      <trkpt lat="46.03117" lon="3.61775">
        <ele>570</ele>
        <time>2017-11-17T20:29:57Z</time>
      </trkpt>
      <trkpt lat="46.03207" lon="3.61607">
        <ele>552</ele>
        <time>2017-11-17T20:31:57Z</time>
      </trkpt>
      <trkpt lat="46.0329" lon="3.61513">
        <ele>546</ele>
        <time>2017-11-17T20:33:57Z</time>
      </trkpt>
      <trkpt lat="46.03377" lon="3.61538">
        <ele>541</ele>
        <time>2017-11-17T20:35:57Z</time>
      </trkpt>
      <trkpt lat="46.03451" lon="3.61556">
        <ele>535</ele>
        <time>2017-11-17T20:37:57Z</time>
      </trkpt>
      <trkpt lat="46.03532" lon="3.6156">
        <ele>525</ele>
        <time>2017-11-17T20:39:57Z</time>
      </trkpt>
      <trkpt lat="46.03606" lon="3.61581">
        <ele>516</ele>
        <time>2017-11-17T20:41:57Z</time>
      </trkpt>
      <trkpt lat="46.03728" lon="3.61637">
        <ele>502</ele>
        <time>2017-11-17T20:43:57Z</time>
      </trkpt>
      <trkpt lat="46.03788" lon="3.61646">
        <ele>496</ele>
        <time>2017-11-17T20:45:57Z</time>
      </trkpt>
      <trkpt lat="46.03838" lon="3.61629">
        <ele>490</ele>
        <time>2017-11-17T20:47:57Z</time>
      </trkpt>
      <trkpt lat="46.03892" lon="3.61599">
        <ele>486</ele>
        <time>2017-11-17T20:49:57Z</time>
      </trkpt>
      <trkpt lat="46.03913" lon="3.6153">
        <ele>479</ele>
        <time>2017-11-17T20:51:57Z</time>
      </trkpt>
      <trkpt lat="46.03931" lon="3.61594">
        <ele>484</ele>
        <time>2017-11-17T20:53:57Z</time>
      </trkpt>
      <trkpt lat="46.0391" lon="3.61654">
        <ele>488</ele>
        <time>2017-11-17T20:55:57Z</time>
      </trkpt>
      <trkpt lat="46.03874" lon="3.61637">
        <ele>489</ele>
        <time>2017-11-17T20:57:57Z</time>
      </trkpt>
      <trkpt lat="46.03818" lon="3.61663">
        <ele>492</ele>
        <time>2017-11-17T20:59:57Z</time>
      </trkpt>
      <trkpt lat="46.03761" lon="3.61667">
        <ele>500</ele>
        <time>2017-11-17T21:01:57Z</time>
      </trkpt>
      <trkpt lat="46.03743" lon="3.61779">
        <ele>498</ele>
        <time>2017-11-17T21:03:57Z</time>
      </trkpt>
      <trkpt lat="46.03794" lon="3.61938">
        <ele>504</ele>
        <time>2017-11-17T21:05:57Z</time>
      </trkpt>
      <trkpt lat="46.03847" lon="3.61972">
        <ele>506</ele>
        <time>2017-11-17T21:07:57Z</time>
      </trkpt>
      <trkpt lat="46.0391" lon="3.62045">
        <ele>515</ele>
        <time>2017-11-17T21:09:57Z</time>
      </trkpt>
      <trkpt lat="46.03928" lon="3.62075">
        <ele>518</ele>
        <time>2017-11-17T21:11:57Z</time>
      </trkpt>
      <trkpt lat="46.0394" lon="3.62139">
        <ele>526</ele>
        <time>2017-11-17T21:13:57Z</time>
      </trkpt>
      <trkpt lat="46.03949" lon="3.62221">
        <ele>533</ele>
        <time>2017-11-17T21:15:57Z</time>
      </trkpt>
      <trkpt lat="46.03961" lon="3.62298">
        <ele>534</ele>
        <time>2017-11-17T21:17:57Z</time>
      </trkpt>
      <trkpt lat="46.0391" lon="3.62311">
        <ele>552</ele>
        <time>2017-11-17T21:19:57Z</time>
      </trkpt>
      <trkpt lat="46.03868" lon="3.62264">
        <ele>550</ele>
        <time>2017-11-17T21:21:57Z</time>
      </trkpt>
      <trkpt lat="46.03832" lon="3.62281">
        <ele>554</ele>
        <time>2017-11-17T21:23:57Z</time>
      </trkpt>
      <trkpt lat="46.03871" lon="3.62371">
        <ele>555</ele>
        <time>2017-11-17T21:25:57Z</time>
      </trkpt>
      <trkpt lat="46.03797" lon="3.62358">
        <ele>553</ele>
        <time>2017-11-17T21:27:57Z</time>
      </trkpt>
      <trkpt lat="46.03734" lon="3.62358">
        <ele>545</ele>
        <time>2017-11-17T21:29:57Z</time>
      </trkpt>
      <trkpt lat="46.03684" lon="3.62328">
        <ele>540</ele>
        <time>2017-11-17T21:31:57Z</time>
      </trkpt>
      <trkpt lat="46.03603" lon="3.62354">
        <ele>544</ele>
        <time>2017-11-17T21:33:57Z</time>
      </trkpt>
      <trkpt lat="46.03564" lon="3.62388">
        <ele>548</ele>
        <time>2017-11-17T21:35:57Z</time>
      </trkpt>
      <trkpt lat="46.03499" lon="3.62384">
        <ele>559</ele>
        <time>2017-11-17T21:37:57Z</time>
      </trkpt>
      <trkpt lat="46.03487" lon="3.62448">
        <ele>556</ele>
        <time>2017-11-17T21:39:57Z</time>
      </trkpt>
      <trkpt lat="46.03496" lon="3.62598">
        <ele>540</ele>
        <time>2017-11-17T21:41:57Z</time>
      </trkpt>
      <trkpt lat="46.03508" lon="3.62701">
        <ele>536</ele>
        <time>2017-11-17T21:43:57Z</time>
      </trkpt>
      <trkpt lat="46.0357" lon="3.62706">
        <ele>532</ele>
        <time>2017-11-17T21:45:57Z</time>
      </trkpt>
      <trkpt lat="46.03645" lon="3.62663">
        <ele>534</ele>
        <time>2017-11-17T21:47:57Z</time>
      </trkpt>
      <trkpt lat="46.03695" lon="3.62641">
        <ele>538</ele>
        <time>2017-11-17T21:49:57Z</time>
      </trkpt>
      <trkpt lat="46.03812" lon="3.62693">
        <ele>554</ele>
        <time>2017-11-17T21:51:57Z</time>
      </trkpt>
      <trkpt lat="46.03847" lon="3.62749">
        <ele>563</ele>
        <time>2017-11-17T21:53:57Z</time>
      </trkpt>
      <trkpt lat="46.03889" lon="3.62882">
        <ele>574</ele>
        <time>2017-11-17T21:55:57Z</time>
      </trkpt>
      <trkpt lat="46.03931" lon="3.62903">
        <ele>580</ele>
        <time>2017-11-17T21:57:57Z</time>
      </trkpt>
      <trkpt lat="46.04029" lon="3.62929">
        <ele>588</ele>
        <time>2017-11-17T21:59:57Z</time>
      </trkpt>
      <trkpt lat="46.04118" lon="3.62912">
        <ele>590</ele>
        <time>2017-11-17T22:01:57Z</time>
      </trkpt>
      <trkpt lat="46.04196" lon="3.62963">
        <ele>592</ele>
        <time>2017-11-17T22:03:57Z</time>
      </trkpt>
      <trkpt lat="46.04199" lon="3.63028">
        <ele>596</ele>
        <time>2017-11-17T22:05:57Z</time>
      </trkpt>
      <trkpt lat="46.04211" lon="3.63113">
        <ele>599</ele>
        <time>2017-11-17T22:07:57Z</time>
      </trkpt>
      <trkpt lat="46.04267" lon="3.63101">
        <ele>599</ele>
        <time>2017-11-17T22:09:57Z</time>
      </trkpt>
      <trkpt lat="46.04369" lon="3.63156">
        <ele>600</ele>
        <time>2017-11-17T22:11:57Z</time>
      </trkpt>
      <trkpt lat="46.04437" lon="3.63208">
        <ele>601</ele>
        <time>2017-11-17T22:13:57Z</time>
      </trkpt>
      <trkpt lat="46.04395" lon="3.63332">
        <ele>600</ele>
        <time>2017-11-17T22:15:57Z</time>
      </trkpt>
      <trkpt lat="46.04321" lon="3.63444">
        <ele>594</ele>
        <time>2017-11-17T22:17:57Z</time>
      </trkpt>
      <trkpt lat="46.04294" lon="3.63555">
        <ele>595</ele>
        <time>2017-11-17T22:19:57Z</time>
      </trkpt>
      <trkpt lat="46.04205" lon="3.63594">
        <ele>592</ele>
        <time>2017-11-17T22:21:57Z</time>
      </trkpt>
      <trkpt lat="46.04112" lon="3.63671">
        <ele>596</ele>
        <time>2017-11-17T22:23:57Z</time>
      </trkpt>
      <trkpt lat="46.04056" lon="3.63787">
        <ele>599</ele>
        <time>2017-11-17T22:25:57Z</time>
      </trkpt>
      <trkpt lat="46.04026" lon="3.63847">
        <ele>596</ele>
        <time>2017-11-17T22:27:57Z</time>
      </trkpt>
      <trkpt lat="46.03984" lon="3.63937">
        <ele>587</ele>
        <time>2017-11-17T22:29:57Z</time>
      </trkpt>
      <trkpt lat="46.03853" lon="3.64092">
        <ele>574</ele>
        <time>2017-11-17T22:31:57Z</time>
      </trkpt>
      <trkpt lat="46.03684" lon="3.64156">
        <ele>560</ele>
        <time>2017-11-17T22:33:57Z</time>
      </trkpt>
      <trkpt lat="46.03591" lon="3.64182">
        <ele>556</ele>
        <time>2017-11-17T22:35:57Z</time>
      </trkpt>
      <trkpt lat="46.03511" lon="3.64238">
        <ele>558</ele>
        <time>2017-11-17T22:37:57Z</time>
      </trkpt>
      <trkpt lat="46.0349" lon="3.64307">
        <ele>561</ele>
        <time>2017-11-17T22:39:57Z</time>
      </trkpt>
      <trkpt lat="46.03502" lon="3.64478">
        <ele>578</ele>
        <time>2017-11-17T22:41:57Z</time>
      </trkpt>
      <trkpt lat="46.03418" lon="3.64504">
        <ele>581</ele>
        <time>2017-11-17T22:43:57Z</time>
      </trkpt>
      <trkpt lat="46.03344" lon="3.64641">
        <ele>589</ele>
        <time>2017-11-17T22:45:57Z</time>
      </trkpt>
      <trkpt lat="46.03237" lon="3.6477">
        <ele>598</ele>
        <time>2017-11-17T22:47:57Z</time>
      </trkpt>
      <trkpt lat="46.03177" lon="3.6483">
        <ele>602</ele>
        <time>2017-11-17T22:49:57Z</time>
      </trkpt>
      <trkpt lat="46.03117" lon="3.64903">
        <ele>606</ele>
        <time>2017-11-17T22:51:57Z</time>
      </trkpt>
    </trkseg>
  </trk>
</gpx>